ADDS METAR Data INFO
IDs: Format: Raw Decoded Include TAF

Data at: 0152 UTC 17 Oct 2017

KPQL 170053Z 01007KT 10SM CLR 17/11 A3014 RMK AO2 SLP207 T01670106 $
KPQL 162353Z 36005KT 10SM CLR 17/11 A3011 RMK AO2 SLP197 T01670111 10239 20167 53019 $
KPQL 162253Z 01008KT 10SM CLR 20/09 A3008 RMK AO2 SLP186 T02000089 $
KPQL 162153Z 01010KT 10SM CLR 23/09 A3006 RMK AO2 SLP181 T02280089 $
KPQL 162053Z 35012G19KT 10SM CLR 23/10 A3005 RMK AO2 SLP178 T02280100 $
KPQL 161953Z 36013KT 10SM CLR 24/12 A3005 RMK AO2 SLP176 T02390117 $
KPQL 161853Z 01011KT 10SM 23/12 A3006 RMK AO2 SLP179 T02280122 $
KPQL 161753Z 01015G23KT 10SM CLR 21/15 A3009 RMK AO2 SLP191 T02110150 10222 20183 58015
KPQL 161653Z 36013KT 10SM FEW010 21/15 A3011 RMK AO2 SLP199 T02110150
KPQL 161625Z 36013KT 10SM FEW010 20/14 A3013 RMK AO2 T02000144
KPQL 161553Z 35011KT 10SM OVC010 19/15 A3013 RMK AO2 SLP205 T01890150
KPQL 161453Z 36015KT 10SM OVC011 19/16 A3013 RMK AO2 SLP206 T01890156 51020
KPQL 161411Z 36013G19KT 10SM OVC010 19/16 A3013 RMK AO2 T01890156
KPQL 161353Z 01008KT 10SM OVC009 19/16 A3013 RMK AO2 CIG 008V013 SLP203 T01890161
KPQL 161253Z 36011KT 10SM OVC008 19/17 A3010 RMK AO2 SLP194 T01940172
KPQL 161212Z 02007KT 10SM OVC009 20/18 A3008 RMK AO2 T02000178
KPQL 161153Z 03010KT 10SM OVC010 21/18 A3008 RMK AO2 CIG 008V013 SLP186 60000 70033 T02060178 10233 20206 51020
KPQL 161103Z 36011G18KT 10SM OVC010 21/19 A3006 RMK AO2 CIG 008V013 T02110189
KPQL 161053Z AUTO 36012KT 10SM OVC008 22/19 A3006 RMK AO2 SLP181 T02170194
KPQL 160953Z AUTO 02011KT 10SM BKN008 OVC013 23/21 A3005 RMK AO2 LTG DSNT E CIG 006V010 SLP175 T02280211
KPQL 160853Z AUTO 35009KT 10SM OVC005 23/22 A3002 RMK AO2 LTG DSNT NE-SE RAB09E48 SLP166 P0000 60000 T02280217 56010
KPQL 160827Z AUTO 35010KT 10SM -RA BKN006 OVC019 23/22 A3002 RMK AO2 LTG DSNT NE-SE RAB09 P0000 T02280217
KPQL 160816Z AUTO 35007KT 6SM -RA BR FEW006 BKN014 OVC023 23/22 A3002 RMK AO2 LTG DSNT E AND SE RAB09 P0000 T02330217
KPQL 160753Z AUTO 34003KT 10SM OVC012 23/22 A3002 RMK AO2 LTG DSNT E-S SLP167 T02280217
KPQL 160735Z AUTO 00000KT 10SM BKN012 OVC080 23/22 A3003 RMK AO2 LTG DSNT E-S T02330217
KPQL 160714Z AUTO 00000KT 10SM BKN075 23/22 A3003 RMK AO2 LTG DSNT E-S T02280217
KPQL 160653Z AUTO 00000KT 10SM VCTS FEW014 OVC070 23/22 A3003 RMK AO2 LTG DSNT E-S SLP171 T02280217
KPQL 160636Z AUTO 00000KT 10SM VCTS OVC065 23/22 A3003 RMK AO2 LTG DSNT S T02280217
KPQL 160553Z AUTO 00000KT 10SM BKN047 OVC060 23/22 A3005 RMK AO2 SLP176 60000 T02280217 10239 20222 403110222 58000
KPQL 160453Z AUTO 33003KT 10SM CLR 22/21 A3006 RMK AO2 SLP180 T02220211
KPQL 160353Z AUTO 00000KT 10SM CLR 23/21 A3005 RMK AO2 SLP178 T02280211
KPQL 160253Z AUTO 36003KT 10SM FEW050 23/22 A3005 RMK AO2 RAB11E32 SLP177 P0000 60000 T02330217 58003
KPQL 160153Z 00000KT 10SM FEW015 SCT022 SCT038 23/22 A3005 RMK AO2 SLP178 T02330222
KPQL 160114Z 35003KT 10SM FEW017 FEW022 SCT050 24/22 A3006 RMK AO2 T02390222
KPQL 160053Z 01005KT 10SM BKN017 BKN023 24/23 A3006 RMK AO2 SLP180 T02390228
KPQL 152353Z 07004KT 10SM FEW048 24/22 A3004 RMK AO2 LTG DSNT SW SLP172 60033 T02390222 10311 20239 51006
KPQL 152351Z 10003KT 10SM FEW048 24/22 A3004 RMK AO2 LTG DSNT SW
KPQL 152257Z 36003KT 10SM VCTS FEW013 SCT019 BKN070 24/22 A3003 RMK AO2 LTG DSNT NE AND SW AND W T02390222
KPQL 152253Z 33003KT 10SM VCTS BKN013 BKN024 24/22 A3003 RMK AO2 LTG DSNT NE AND SW AND W RAE18 SLP170 P0008 T02390222
KPQL 152250Z 34003KT 10SM VCTS BKN013 BKN021 BKN070 24/22 A3003 RMK AO2 LTG DSNT NE AND SW AND W RAE18 P0008
KPQL 152227Z 31003KT 10SM SCT017 BKN024 OVC050 24/23 A3002 RMK AO2 LTG DSNT NE RAE18 P0008 T02390228
KPQL 152217Z 36003KT 10SM -TSRA SCT014 BKN020 OVC070 24/22 A3002 RMK AO2 LTG DSNT NE P0008 T02440222
KPQL 152209Z AUTO 35004KT 3SM -TSRA BR BKN014 BKN020 OVC070 24/23 A3003 RMK AO2 LTG DSNT NE P0008 T02440228
KPQL 152156Z 11011G21KT 1 1/4SM +TSRA BR FEW009 BKN016 OVC021 24/23 A3002 RMK AO2 LTG DSNT N AND NE P0002 T02440228
KPQL 152153Z 13014G21KT 1 1/2SM +TSRA BR BKN030 24/23 A3002 RMK AO2 LTG DSNT N AND NE RAB09 TSB36 SLP166 P0025 T02440228
KPQL 152149Z 17011KT 1 3/4SM +TSRA BR BKN030 25/23 A3002 RMK AO2 LTG DSNT N AND NE RAB09 TSB36 P0022
KPQL 152142Z VRB04KT 9SM -TSRA BKN030 25/23 A3003 RMK AO2 LTG DSNT N AND NE RAB09 TSB36 P0009 T02500233
KPQL 152130Z 35006KT 5SM VCTS -RA BR BKN030 25/23 A3002 RMK AO2 LTG DSNT N AND NE RAB09 P0009 T02500228
KPQL 152122Z 35007KT 2SM VCTS -RA BR BKN030 25/23 A3003 RMK AO2 VIS 1V5 LTG DSNT N RAB09 P0008 T02500228
KPQL 152114Z 26003KT 3/4SM +RA BR BKN030 26/24 A3003 RMK AO2 LTG DSNT N RAB09 P0007 T02560239
KPQL 152053Z 16006KT 10SM CLR 28/23 A3002 RMK AO2 LTG DSNT W-N SLP167 T02830228 55013
KPQL 151953Z 16009KT 10SM CLR 29/23 A3001 RMK AO2 LTG DSNT NW-E SLP163 T02940228
KPQL 151853Z 15010KT 10SM FEW025 SCT032 SCT042 31/23 A3002 RMK AO2 LTG DSNT NW SLP168 T03060228
KPQL 151753Z 12006KT 10SM FEW026 SCT037 30/22 A3006 RMK AO2 SLP180 60000 T03000222 10306 20239 58013
KPQL 151720Z 14008KT 10SM FEW024 SCT029 SCT036 30/23 A3008 RMK AO2 T03000228
KPQL 151712Z 14009KT 10SM FEW023 BKN028 BKN036 30/22 A3009 RMK AO2 LTG DSNT NE T03000222
KPQL 151653Z 13007KT 10SM SCT023 BKN044 30/23 A3009 RMK AO2 SLP191 T03000228
KPQL 151553Z 10006KT 10SM SCT023 BKN032 OVC046 29/23 A3011 RMK AO2 SLP196 T02890228
KPQL 151532Z 10006KT 10SM FEW021 SCT026 BKN034 29/23 A3010 RMK AO2 T02890228
KPQL 151453Z 00000KT 10SM BKN017 BKN027 28/23 A3010 RMK AO2 SLP193 60000 T02830233 52004
KPQL 151402Z 08003KT 10SM SCT016 27/23 A3009 RMK AO2 T02670233
KPQL 151353Z 07003KT 10SM BKN016 27/23 A3009 RMK AO2 RAE04 SLP189 P0000 T02670233